Аэропорт: Внуково. Москва

ICAO: UUWW

METAR:
2018/07/16 19:30
UUWW 161930Z 06007MPS CAVOK 25/17 Q1008 R06/000070 TEMPO 06008G16MPS 1500 TSRA BKN015CB
METAR:
2018/07/16 18:21
TAF UUWW 161658Z 1618/1718 05006MPS 9999 SCT030 TX28/1712Z TN19/1702Z 
      TEMPO 1700/1704 FEW006 
      TEMPO 1708/1718 06008G16MPS 2100 -TSRA BKN020CB